createdAt,value
2022-11-08T00:01:07.644Z,2.50
2022-11-08T00:06:28.574Z,1.90
2022-11-08T00:11:49.380Z,2.70
2022-11-08T00:16:51.471Z,2.40
2022-11-08T00:21:53.582Z,2.50
2022-11-08T00:26:55.762Z,2.72
2022-11-08T00:31:58.018Z,2.58
2022-11-08T00:37:00.550Z,2.88
2022-11-08T00:42:03.227Z,2.65
2022-11-08T00:47:05.532Z,2.60
2022-11-08T00:52:07.697Z,2.55
2022-11-08T00:57:10.285Z,2.38
2022-11-08T01:02:12.450Z,2.38
2022-11-08T01:07:15.261Z,2.53
2022-11-08T01:12:17.285Z,2.63
2022-11-08T01:17:19.260Z,2.47
2022-11-08T01:22:21.232Z,2.95
2022-11-08T01:27:23.346Z,3.20
2022-11-08T01:32:25.293Z,3.08
2022-11-08T01:37:27.271Z,2.85
2022-11-08T01:42:30.813Z,2.53
2022-11-08T01:47:32.873Z,2.83
2022-11-08T01:52:51.306Z,2.60
2022-11-08T01:58:05.763Z,2.22
2022-11-08T02:03:11.464Z,2.40
2022-11-08T02:08:22.139Z,2.83
2022-11-08T02:13:27.009Z,2.63
2022-11-08T02:18:31.781Z,2.22
2022-11-08T02:23:42.593Z,2.00
2022-11-08T02:28:46.676Z,2.10
2022-11-08T02:33:49.122Z,2.40
2022-11-08T02:38:55.988Z,2.30
2022-11-08T02:43:57.955Z,2.67
2022-11-08T02:48:59.927Z,2.72
2022-11-08T02:54:01.916Z,2.58
2022-11-08T02:59:03.951Z,2.17
2022-11-08T03:04:05.922Z,2.90
2022-11-08T03:09:07.919Z,2.40
2022-11-08T03:14:09.983Z,2.00
2022-11-08T03:19:12.228Z,2.60
2022-11-08T03:24:14.282Z,2.22
2022-11-08T03:29:16.261Z,2.90
2022-11-08T03:34:18.219Z,2.80
2022-11-08T03:39:20.196Z,2.78
2022-11-08T03:44:22.176Z,2.38
2022-11-08T03:49:24.207Z,2.35
2022-11-08T03:54:26.398Z,2.30
2022-11-08T03:59:28.357Z,2.42
2022-11-08T04:04:30.301Z,2.13
2022-11-08T04:09:32.349Z,2.30
2022-11-08T04:14:52.971Z,1.88
2022-11-08T04:20:13.729Z,2.03
2022-11-08T04:25:15.724Z,2.13
2022-11-08T04:30:17.799Z,1.70
2022-11-08T04:35:19.862Z,2.22
2022-11-08T04:40:21.854Z,1.90
2022-11-08T04:45:23.874Z,2.53
2022-11-08T04:50:25.928Z,2.00
2022-11-08T04:55:27.982Z,1.83
2022-11-08T05:00:30.095Z,1.92
2022-11-08T05:05:32.092Z,1.42
2022-11-08T05:10:34.113Z,1.70
2022-11-08T05:15:36.357Z,1.63
2022-11-08T05:20:56.923Z,1.58
2022-11-08T05:25:58.909Z,1.30
2022-11-08T05:31:01.001Z,1.55
2022-11-08T05:36:08.865Z,1.70
2022-11-08T05:41:17.316Z,1.70
2022-11-08T05:46:21.486Z,1.50
2022-11-08T05:51:23.912Z,1.80
2022-11-08T05:56:25.929Z,1.92
2022-11-08T06:01:27.991Z,1.50
2022-11-08T06:06:30.058Z,1.30
2022-11-08T06:11:32.027Z,1.27
2022-11-08T06:16:34.038Z,1.60
2022-11-08T06:21:38.586Z,2.25
2022-11-08T06:26:40.553Z,1.50
2022-11-08T06:31:43.305Z,1.55
2022-11-08T06:36:45.747Z,1.55
2022-11-08T06:41:47.742Z,1.67
2022-11-08T06:46:55.971Z,2.38
2022-11-08T06:51:57.958Z,1.60
2022-11-08T06:57:00.486Z,1.70
2022-11-08T07:02:02.615Z,1.90
2022-11-08T07:07:04.684Z,1.88
2022-11-08T07:12:06.844Z,1.58
2022-11-08T07:17:08.842Z,1.88
2022-11-08T07:22:10.862Z,1.65
2022-11-08T07:27:12.846Z,1.58
2022-11-08T07:32:14.826Z,1.58
2022-11-08T07:37:17.015Z,1.60
2022-11-08T07:42:20.977Z,1.60
2022-11-08T07:47:36.918Z,1.75
2022-11-08T07:52:38.935Z,1.65
2022-11-08T07:57:40.883Z,2.20
2022-11-08T08:02:43.699Z,1.98
2022-11-08T08:07:45.716Z,1.27
2022-11-08T08:12:47.727Z,1.52
2022-11-08T08:17:49.731Z,1.70
2022-11-08T08:22:52.435Z,1.50
2022-11-08T08:27:56.427Z,1.40
2022-11-08T08:33:28.231Z,1.60
2022-11-08T19:12:49.179Z,3.10
2022-11-08T19:17:54.008Z,3.60
2022-11-08T19:22:55.871Z,3.35
2022-11-08T19:27:58.709Z,4.13
2022-11-08T19:33:00.121Z,5.43
2022-11-08T19:38:01.567Z,2.90
2022-11-08T19:43:03.180Z,2.60
2022-11-08T19:48:05.043Z,2.88
2022-11-08T19:53:07.603Z,2.78
2022-11-08T19:58:09.253Z,2.45
2022-11-08T20:03:10.976Z,2.20
2022-11-08T20:08:12.468Z,2.85
2022-11-08T20:13:13.997Z,2.15
2022-11-08T20:18:15.983Z,2.20
2022-11-08T20:23:17.801Z,2.40
2022-11-08T20:28:19.718Z,1.90
2022-11-08T20:33:21.419Z,2.58
2022-11-08T20:38:22.878Z,2.40
2022-11-08T20:43:24.337Z,2.45
2022-11-08T20:48:28.720Z,2.78
2022-11-08T20:53:32.085Z,2.60
2022-11-08T20:58:35.231Z,2.67
2022-11-08T21:03:36.960Z,2.35
2022-11-08T21:14:00.342Z,2.75
2022-11-08T21:19:01.819Z,3.28
2022-11-08T21:24:03.541Z,3.00
2022-11-08T21:29:05.849Z,2.65
2022-11-08T21:34:08.897Z,2.55
2022-11-08T21:39:11.643Z,2.60
2022-11-08T21:44:13.231Z,2.40
2022-11-08T21:49:14.791Z,2.35
2022-11-08T21:54:16.358Z,2.05
2022-11-08T21:59:17.889Z,2.20
2022-11-08T22:04:19.381Z,1.80
2022-11-08T22:09:20.945Z,2.28
2022-11-08T22:14:22.439Z,2.00
2022-11-08T22:19:23.986Z,1.98
2022-11-08T22:24:25.489Z,2.13
2022-11-08T22:29:26.922Z,1.92
2022-11-08T22:34:28.414Z,1.70
2022-11-08T22:39:30.058Z,1.80
2022-11-08T22:44:31.585Z,1.73
2022-11-08T22:49:33.118Z,2.03
2022-11-08T22:54:34.786Z,1.88
2022-11-08T22:59:36.271Z,2.00
2022-11-08T23:04:37.712Z,1.92
2022-11-08T23:09:39.130Z,1.42
2022-11-08T23:14:58.964Z,1.55
2022-11-08T23:20:26.369Z,1.67
2022-11-08T23:25:27.823Z,1.65
2022-11-08T23:30:47.690Z,1.90
2022-11-08T23:36:11.909Z,2.00
2022-11-08T23:41:31.953Z,2.17
2022-11-08T23:46:33.642Z,1.63
2022-11-08T23:51:35.119Z,1.25
2022-11-08T23:56:36.561Z,1.92
